EDT,Max TemperatureF,Mean TemperatureF,Min TemperatureF,Max Dew PointF,MeanDew PointF,Min DewpointF,Max Humidity, Mean Humidity, Min Humidity, Max Sea Level PressureIn, Mean Sea Level PressureIn, Min Sea Level PressureIn, Max VisibilityMiles, Mean VisibilityMiles, Min VisibilityMiles, Max Wind SpeedMPH, Mean Wind SpeedMPH, Max Gust SpeedMPH,PrecipitationIn, CloudCover, Events, WindDirDegrees
2014-3-1,48,38,28,36,30,18,100,72,50,30.38,30.30,30.24,10,10,10,7,3,,0.00,5,,4
2014-3-2,71,50,30,43,37,28,100,65,33,30.24,30.07,29.92,10,9,3,18,4,24,0.00,1,,202
2014-3-3,46,35,24,37,30,18,100,87,69,30.29,30.09,29.89,10,6,0,16,8,26,0.10,7,Rain-Snow,6
2014-3-4,33,27,21,30,23,14,100,82,68,30.33,30.28,30.20,10,8,2,15,8,22,0.00,5,,3
2014-3-5,41,36,30,36,31,21,100,85,56,30.30,30.21,30.16,10,8,2,10,6,17,0.00,6,,354
2014-3-6,41,37,33,36,29,21,87,74,56,30.43,30.35,30.20,10,10,10,21,11,31,0.00,6,Rain,22
2014-3-7,44,40,37,43,40,36,100,97,87,30.18,29.93,29.81,10,7,2,29,13,37,0.86,8,Rain,4
2014-3-8,64,50,35,39,36,34,93,66,34,30.03,29.96,29.87,10,10,10,13,8,20,0.00,1,,264
2014-3-9,55,45,35,43,37,27,93,67,43,30.08,30.02,29.92,10,10,5,13,5,20,0.00,1,,12
2014-3-10,69,50,30,41,33,28,100,62,21,30.06,29.90,29.77,10,9,4,13,2,17,0.00,0,,230
2014-3-11,78,63,48,45,38,34,66,44,20,29.77,29.72,29.65,10,10,10,10,5,10,0.00,0,,208
2014-3-12,71,60,50,59,51,32,94,69,47,29.70,29.45,29.21,10,10,2,23,9,32,0.25,3,Rain,202
2014-3-13,48,37,26,32,12,-2,74,37,16,30.24,29.88,29.45,10,10,10,26,15,38,0.00,0,,294
2014-3-14,57,39,21,30,20,14,93,50,23,30.36,30.24,30.08,10,10,7,17,4,23,0.00,0,,181
2014-3-15,71,58,46,41,37,30,71,47,23,30.09,29.98,29.90,10,10,10,21,11,32,0.00,1,,230
2014-3-16,51,43,35,39,34,27,100,72,43,30.13,30.05,29.92,10,9,3,21,6,28,0.35,3,Rain,38
2014-3-17,37,35,33,37,36,34,100,98,93,29.99,29.91,29.84,10,6,2,16,12,26,0.23,8,Rain,10
2014-3-18,42,40,37,43,39,37,100,95,81,30.15,30.04,29.93,10,6,2,17,11,29,0.23,8,Rain,10
2014-3-19,60,50,41,57,46,39,100,91,72,30.18,30.07,29.94,10,5,2,14,6,18,0.16,8,Rain,340
2014-3-20,66,54,42,48,40,28,100,65,24,30.02,29.93,29.88,10,9,2,17,9,24,0.00,2,,255
2014-3-21,66,49,32,37,33,25,100,51,28,30.14,30.08,30.03,10,10,10,14,5,18,0.00,0,,216
2014-3-22,75,60,46,45,40,34,82,50,27,30.08,29.98,29.90,10,10,10,20,8,28,0.00,0,,202
2014-3-23,57,46,33,45,35,27,100,68,46,30.13,30.02,29.94,10,9,2,15,6,22,0.06,4,Rain,359
2014-3-24,44,37,30,36,21,14,100,58,31,30.31,30.22,30.14,10,9,1,12,5,18,0.00,0,,22
2014-3-25,48,37,26,43,32,25,100,85,50,30.19,29.93,29.72,10,9,2,15,3,23,0.39,5,Rain-Snow,9
2014-3-26,44,36,28,34,20,10,100,56,27,30.34,30.09,29.83,10,10,7,23,12,33,0.00,3,,301
2014-3-27,51,36,21,37,24,16,93,60,34,30.53,30.42,30.35,10,10,10,15,3,22,0.00,0,,159
2014-3-28,73,58,42,59,49,37,88,69,41,30.35,30.21,30.11,10,10,7,23,9,30,0.00,4,,185
2014-3-29,71,66,60,64,62,59,100,93,73,30.18,29.92,29.59,10,8,4,15,8,24,0.50,7,Rain,159
2014-3-30,66,54,42,64,48,37,100,87,71,29.83,29.64,29.47,10,9,3,20,12,32,0.04,8,Rain,270
2014-3-31,66,54,42,43,34,27,87,54,23,30.09,29.96,29.83,10,10,10,21,12,29,0.00,3,,322